sensor_id;sensor_type;location;lat;lon;timestamp;pressure;altitude;pressure_sealevel;temperature;humidity
6514;BME280;3290;47.716;9.070;2023-03-17T00:01:30;96722.47;;;5.52;62.41
6514;BME280;3290;47.716;9.070;2023-03-17T00:03:56;96722.66;;;5.50;61.94
6514;BME280;3290;47.716;9.070;2023-03-17T00:06:28;96728.38;;;5.39;64.19
6514;BME280;3290;47.716;9.070;2023-03-17T00:08:54;96734.72;;;5.37;65.09
6514;BME280;3290;47.716;9.070;2023-03-17T00:11:20;96725.16;;;5.37;66.53
6514;BME280;3290;47.716;9.070;2023-03-17T00:13:46;96723.47;;;5.30;66.73
6514;BME280;3290;47.716;9.070;2023-03-17T00:16:21;96724.22;;;5.24;67.28
6514;BME280;3290;47.716;9.070;2023-03-17T00:18:49;96719.38;;;5.15;68.02
6514;BME280;3290;47.716;9.070;2023-03-17T00:21:19;96720.09;;;5.09;67.38
6514;BME280;3290;47.716;9.070;2023-03-17T00:23:49;96714.59;;;4.97;67.79
6514;BME280;3290;47.716;9.070;2023-03-17T00:26:16;96718.44;;;4.66;68.58
6514;BME280;3290;47.716;9.070;2023-03-17T00:28:41;96717.84;;;4.64;68.19
6514;BME280;3290;47.716;9.070;2023-03-17T00:31:15;96709.06;;;4.65;66.82
6514;BME280;3290;47.716;9.070;2023-03-17T00:33:42;96711.31;;;4.89;67.06
6514;BME280;3290;47.716;9.070;2023-03-17T00:36:15;96704.47;;;4.67;68.03
6514;BME280;3290;47.716;9.070;2023-03-17T00:38:42;96700.38;;;4.58;68.87
6514;BME280;3290;47.716;9.070;2023-03-17T00:41:10;96705.56;;;4.58;69.08
6514;BME280;3290;47.716;9.070;2023-03-17T00:43:36;96698.88;;;4.64;67.47
6514;BME280;3290;47.716;9.070;2023-03-17T00:46:08;96701.78;;;4.75;66.82
6514;BME280;3290;47.716;9.070;2023-03-17T00:48:36;96701.78;;;4.75;67.13
6514;BME280;3290;47.716;9.070;2023-03-17T00:51:02;96705.75;;;4.92;66.67
6514;BME280;3290;47.716;9.070;2023-03-17T00:53:28;96712.19;;;4.96;66.80
6514;BME280;3290;47.716;9.070;2023-03-17T00:55:53;96705.56;;;4.93;66.13
6514;BME280;3290;47.716;9.070;2023-03-17T00:58:27;96711.00;;;4.98;66.02
6514;BME280;3290;47.716;9.070;2023-03-17T01:00:55;96708.94;;;4.73;67.73
6514;BME280;3290;47.716;9.070;2023-03-17T01:03:21;96707.16;;;4.74;67.92
6514;BME280;3290;47.716;9.070;2023-03-17T01:05:48;96696.94;;;4.72;69.38
6514;BME280;3290;47.716;9.070;2023-03-17T01:08:14;96691.63;;;4.59;70.24
6514;BME280;3290;47.716;9.070;2023-03-17T01:10:40;96694.28;;;4.45;70.25
6514;BME280;3290;47.716;9.070;2023-03-17T01:13:07;96694.09;;;4.67;69.70
6514;BME280;3290;47.716;9.070;2023-03-17T01:15:33;96678.50;;;4.81;70.64
6514;BME280;3290;47.716;9.070;2023-03-17T01:18:00;96675.53;;;4.84;70.16
6514;BME280;3290;47.716;9.070;2023-03-17T01:20:29;96667.88;;;4.77;69.63
6514;BME280;3290;47.716;9.070;2023-03-17T01:22:55;96665.34;;;4.83;68.73
6514;BME280;3290;47.716;9.070;2023-03-17T01:25:21;96660.28;;;4.75;69.40
6514;BME280;3290;47.716;9.070;2023-03-17T01:27:47;96653.84;;;4.71;70.20
6514;BME280;3290;47.716;9.070;2023-03-17T01:32:48;96645.94;;;4.38;71.48
6514;BME280;3290;47.716;9.070;2023-03-17T01:35:14;96639.13;;;4.37;72.15
6514;BME280;3290;47.716;9.070;2023-03-17T01:37:39;96647.72;;;4.58;71.58
6514;BME280;3290;47.716;9.070;2023-03-17T01:40:07;96648.16;;;4.61;70.96
6514;BME280;3290;47.716;9.070;2023-03-17T01:42:34;96660.06;;;4.56;71.63
6514;BME280;3290;47.716;9.070;2023-03-17T01:45:03;96667.00;;;4.70;70.64
6514;BME280;3290;47.716;9.070;2023-03-17T01:47:30;96665.53;;;4.81;70.87
6514;BME280;3290;47.716;9.070;2023-03-17T01:49:59;96660.38;;;4.88;70.88
6514;BME280;3290;47.716;9.070;2023-03-17T01:52:29;96652.38;;;4.83;72.05
6514;BME280;3290;47.716;9.070;2023-03-17T01:54:57;96650.84;;;4.88;72.46
6514;BME280;3290;47.716;9.070;2023-03-17T01:57:30;96641.06;;;4.90;72.46
6514;BME280;3290;47.716;9.070;2023-03-17T02:00:06;96649.53;;;4.99;72.51
6514;BME280;3290;47.716;9.070;2023-03-17T02:02:37;96646.94;;;4.99;72.60
6514;BME280;3290;47.716;9.070;2023-03-17T02:05:04;96654.31;;;5.02;74.51
6514;BME280;3290;47.716;9.070;2023-03-17T02:07:31;96647.78;;;5.06;75.70
6514;BME280;3290;47.716;9.070;2023-03-17T02:09:57;96642.28;;;4.74;73.25
6514;BME280;3290;47.716;9.070;2023-03-17T02:12:24;96636.69;;;4.35;73.21
6514;BME280;3290;47.716;9.070;2023-03-17T02:14:52;96630.53;;;4.36;72.24
6514;BME280;3290;47.716;9.070;2023-03-17T02:17:19;96630.72;;;4.35;72.53
6514;BME280;3290;47.716;9.070;2023-03-17T02:19:46;96617.84;;;4.27;73.33
6514;BME280;3290;47.716;9.070;2023-03-17T02:22:12;96623.69;;;4.14;73.50
6514;BME280;3290;47.716;9.070;2023-03-17T02:24:40;96627.06;;;4.29;73.76
6514;BME280;3290;47.716;9.070;2023-03-17T02:27:13;96645.75;;;4.60;72.95
6514;BME280;3290;47.716;9.070;2023-03-17T02:29:40;96646.25;;;4.70;73.01
6514;BME280;3290;47.716;9.070;2023-03-17T02:32:06;96645.06;;;4.72;73.37
6514;BME280;3290;47.716;9.070;2023-03-17T02:34:34;96641.00;;;4.63;73.28
6514;BME280;3290;47.716;9.070;2023-03-17T02:37:00;96637.22;;;4.45;73.60
6514;BME280;3290;47.716;9.070;2023-03-17T02:39:25;96639.03;;;4.44;74.87
6514;BME280;3290;47.716;9.070;2023-03-17T02:41:51;96635.97;;;4.62;74.04
6514;BME280;3290;47.716;9.070;2023-03-17T02:44:17;96630.66;;;4.49;74.07
6514;BME280;3290;47.716;9.070;2023-03-17T02:46:42;96647.41;;;4.67;72.93
6514;BME280;3290;47.716;9.070;2023-03-17T02:49:08;96641.25;;;4.68;72.74
6514;BME280;3290;47.716;9.070;2023-03-17T02:51:35;96640.56;;;4.60;73.01
6514;BME280;3290;47.716;9.070;2023-03-17T02:54:01;96630.19;;;4.60;74.09
6514;BME280;3290;47.716;9.070;2023-03-17T02:56:26;96630.06;;;4.12;75.13
6514;BME280;3290;47.716;9.070;2023-03-17T02:58:52;96639.63;;;4.11;76.87
6514;BME280;3290;47.716;9.070;2023-03-17T03:01:17;96631.16;;;4.38;76.48
6514;BME280;3290;47.716;9.070;2023-03-17T03:03:43;96634.28;;;4.34;76.51
6514;BME280;3290;47.716;9.070;2023-03-17T03:06:08;96641.09;;;4.35;76.54
6514;BME280;3290;47.716;9.070;2023-03-17T03:08:34;96639.38;;;4.41;75.88
6514;BME280;3290;47.716;9.070;2023-03-17T03:11:00;96637.13;;;4.38;76.47
6514;BME280;3290;47.716;9.070;2023-03-17T03:13:27;96640.22;;;4.28;77.67
6514;BME280;3290;47.716;9.070;2023-03-17T03:15:52;96641.56;;;4.24;77.86
6514;BME280;3290;47.716;9.070;2023-03-17T03:18:17;96639.03;;;4.30;78.14
6514;BME280;3290;47.716;9.070;2023-03-17T03:20:43;96640.03;;;4.29;78.57
6514;BME280;3290;47.716;9.070;2023-03-17T03:23:10;96645.19;;;4.43;78.12
6514;BME280;3290;47.716;9.070;2023-03-17T03:25:35;96650.03;;;4.32;79.24
6514;BME280;3290;47.716;9.070;2023-03-17T03:28:03;96652.25;;;4.35;79.50
6514;BME280;3290;47.716;9.070;2023-03-17T03:30:28;96653.84;;;4.50;79.20
6514;BME280;3290;47.716;9.070;2023-03-17T03:32:54;96653.66;;;4.52;79.98
6514;BME280;3290;47.716;9.070;2023-03-17T03:35:19;96658.41;;;4.48;80.07
6514;BME280;3290;47.716;9.070;2023-03-17T03:37:44;96651.81;;;4.32;81.10
6514;BME280;3290;47.716;9.070;2023-03-17T03:40:10;96661.00;;;4.13;80.72
6514;BME280;3290;47.716;9.070;2023-03-17T03:42:36;96659.66;;;4.03;81.89
6514;BME280;3290;47.716;9.070;2023-03-17T03:45:02;96664.72;;;4.11;80.77
6514;BME280;3290;47.716;9.070;2023-03-17T03:47:27;96654.97;;;4.13;81.29
6514;BME280;3290;47.716;9.070;2023-03-17T03:49:52;96663.34;;;3.94;82.56
6514;BME280;3290;47.716;9.070;2023-03-17T03:52:18;96657.97;;;3.96;82.85
6514;BME280;3290;47.716;9.070;2023-03-17T03:54:44;96657.25;;;4.01;82.64
6514;BME280;3290;47.716;9.070;2023-03-17T03:57:09;96655.09;;;4.05;82.97
6514;BME280;3290;47.716;9.070;2023-03-17T03:59:35;96651.25;;;4.15;82.23
6514;BME280;3290;47.716;9.070;2023-03-17T04:02:00;96659.94;;;4.08;82.03
6514;BME280;3290;47.716;9.070;2023-03-17T04:04:25;96667.22;;;4.19;83.05
6514;BME280;3290;47.716;9.070;2023-03-17T04:06:51;96669.97;;;4.32;82.63
6514;BME280;3290;47.716;9.070;2023-03-17T04:09:16;96664.31;;;4.42;82.48
6514;BME280;3290;47.716;9.070;2023-03-17T04:11:41;96665.47;;;4.40;82.29
6514;BME280;3290;47.716;9.070;2023-03-17T04:14:07;96663.44;;;4.36;82.76
6514;BME280;3290;47.716;9.070;2023-03-17T04:16:32;96661.69;;;4.22;82.47
6514;BME280;3290;47.716;9.070;2023-03-17T04:18:58;96653.41;;;3.97;84.20
6514;BME280;3290;47.716;9.070;2023-03-17T04:21:23;96656.38;;;3.80;84.91
6514;BME280;3290;47.716;9.070;2023-03-17T04:23:48;96646.53;;;3.61;86.60
6514;BME280;3290;47.716;9.070;2023-03-17T04:26:14;96648.50;;;3.74;87.58
6514;BME280;3290;47.716;9.070;2023-03-17T04:28:41;96650.19;;;4.10;85.76
6514;BME280;3290;47.716;9.070;2023-03-17T04:31:08;96640.31;;;4.20;85.58
6514;BME280;3290;47.716;9.070;2023-03-17T04:33:35;96646.63;;;4.32;85.29
6514;BME280;3290;47.716;9.070;2023-03-17T04:36:01;96641.56;;;4.24;85.85
6514;BME280;3290;47.716;9.070;2023-03-17T04:38:28;96636.53;;;4.37;85.37
6514;BME280;3290;47.716;9.070;2023-03-17T04:40:53;96642.97;;;4.26;85.99
6514;BME280;3290;47.716;9.070;2023-03-17T04:43:19;96643.16;;;4.25;85.86
6514;BME280;3290;47.716;9.070;2023-03-17T04:45:44;96635.81;;;4.28;85.35
6514;BME280;3290;47.716;9.070;2023-03-17T04:48:09;96640.66;;;4.31;85.36
6514;BME280;3290;47.716;9.070;2023-03-17T04:50:35;96641.56;;;4.24;86.46
6514;BME280;3290;47.716;9.070;2023-03-17T04:53:00;96641.06;;;4.14;86.65
6514;BME280;3290;47.716;9.070;2023-03-17T04:55:26;96644.47;;;3.86;88.14
6514;BME280;3290;47.716;9.070;2023-03-17T04:57:51;96646.47;;;3.84;88.47
6514;BME280;3290;47.716;9.070;2023-03-17T05:00:17;96641.59;;;3.95;88.51
6514;BME280;3290;47.716;9.070;2023-03-17T05:02:42;96649.91;;;4.05;88.31
6514;BME280;3290;47.716;9.070;2023-03-17T05:05:08;96651.16;;;4.09;89.25
6514;BME280;3290;47.716;9.070;2023-03-17T05:07:34;96649.78;;;4.13;88.59
6514;BME280;3290;47.716;9.070;2023-03-17T05:09:59;96648.59;;;3.66;89.77
6514;BME280;3290;47.716;9.070;2023-03-17T05:12:26;96643.94;;;3.47;91.71
6514;BME280;3290;47.716;9.070;2023-03-17T05:14:51;96653.69;;;3.59;91.88
6514;BME280;3290;47.716;9.070;2023-03-17T05:17:17;96656.56;;;3.64;92.72
6514;BME280;3290;47.716;9.070;2023-03-17T05:19:42;96649.75;;;3.63;92.57
6514;BME280;3290;47.716;9.070;2023-03-17T05:22:08;96651.00;;;3.39;93.69
6514;BME280;3290;47.716;9.070;2023-03-17T05:24:33;96651.25;;;3.44;93.79
6514;BME280;3290;47.716;9.070;2023-03-17T05:26:59;96657.25;;;3.58;92.88
6514;BME280;3290;47.716;9.070;2023-03-17T05:29:24;96654.13;;;3.77;92.23
6514;BME280;3290;47.716;9.070;2023-03-17T05:31:49;96655.56;;;3.51;93.74
6514;BME280;3290;47.716;9.070;2023-03-17T05:34:15;96660.09;;;3.35;94.13
6514;BME280;3290;47.716;9.070;2023-03-17T05:36:41;96669.78;;;3.69;92.93
6514;BME280;3290;47.716;9.070;2023-03-17T05:39:07;96662.53;;;3.79;92.45
6514;BME280;3290;47.716;9.070;2023-03-17T05:41:33;96661.13;;;3.62;93.25
6514;BME280;3290;47.716;9.070;2023-03-17T05:43:58;96665.38;;;3.41;94.53
6514;BME280;3290;47.716;9.070;2023-03-17T05:46:24;96662.69;;;3.35;94.71
6514;BME280;3290;47.716;9.070;2023-03-17T05:48:50;96671.09;;;3.51;95.18
6514;BME280;3290;47.716;9.070;2023-03-17T05:51:16;96670.63;;;3.48;96.56
6514;BME280;3290;47.716;9.070;2023-03-17T05:53:41;96672.09;;;3.64;96.96
6514;BME280;3290;47.716;9.070;2023-03-17T05:56:07;96676.53;;;3.70;96.11
6514;BME280;3290;47.716;9.070;2023-03-17T05:58:33;96677.72;;;3.68;96.59
6514;BME280;3290;47.716;9.070;2023-03-17T06:00:59;96673.88;;;3.78;96.60
6514;BME280;3290;47.716;9.070;2023-03-17T06:03:25;96679.84;;;3.93;95.38
6514;BME280;3290;47.716;9.070;2023-03-17T06:05:50;96673.97;;;3.70;95.87
6514;BME280;3290;47.716;9.070;2023-03-17T06:08:16;96668.69;;;3.78;95.98
6514;BME280;3290;47.716;9.070;2023-03-17T06:10:42;96662.97;;;3.68;95.79
6514;BME280;3290;47.716;9.070;2023-03-17T06:13:07;96675.47;;;3.65;95.29
6514;BME280;3290;47.716;9.070;2023-03-17T06:15:33;96665.38;;;3.56;96.06
6514;BME280;3290;47.716;9.070;2023-03-17T06:18:01;96662.00;;;3.84;95.32
6514;BME280;3290;47.716;9.070;2023-03-17T06:20:29;96666.81;;;4.01;94.02
6514;BME280;3290;47.716;9.070;2023-03-17T06:22:55;96666.72;;;3.80;95.46
6514;BME280;3290;47.716;9.070;2023-03-17T06:25:21;96666.44;;;4.04;95.30
6514;BME280;3290;47.716;9.070;2023-03-17T06:27:46;96663.59;;;4.48;93.99
6514;BME280;3290;47.716;9.070;2023-03-17T06:30:12;96675.47;;;4.78;92.93
6514;BME280;3290;47.716;9.070;2023-03-17T06:32:37;96676.56;;;4.90;92.10
6514;BME280;3290;47.716;9.070;2023-03-17T06:35:03;96675.09;;;5.22;91.02
6514;BME280;3290;47.716;9.070;2023-03-17T06:37:29;96677.72;;;5.56;88.19
6514;BME280;3290;47.716;9.070;2023-03-17T06:39:55;96669.94;;;5.56;87.87
6514;BME280;3290;47.716;9.070;2023-03-17T06:42:21;96670.09;;;5.48;88.18
6514;BME280;3290;47.716;9.070;2023-03-17T06:44:47;96669.00;;;5.91;89.15
6514;BME280;3290;47.716;9.070;2023-03-17T06:47:12;96660.03;;;5.99;85.45
6514;BME280;3290;47.716;9.070;2023-03-17T06:49:38;96655.72;;;6.19;84.71
6514;BME280;3290;47.716;9.070;2023-03-17T06:52:03;96659.50;;;6.57;84.76
6514;BME280;3290;47.716;9.070;2023-03-17T06:54:29;96662.78;;;6.97;81.07
6514;BME280;3290;47.716;9.070;2023-03-17T06:56:54;96660.78;;;7.06;80.82
6514;BME280;3290;47.716;9.070;2023-03-17T06:59:20;96662.78;;;7.74;80.32
6514;BME280;3290;47.716;9.070;2023-03-17T07:01:46;96667.97;;;7.74;76.70
6514;BME280;3290;47.716;9.070;2023-03-17T07:04:13;96672.34;;;8.06;76.01
6514;BME280;3290;47.716;9.070;2023-03-17T07:06:39;96672.16;;;8.64;75.36
6514;BME280;3290;47.716;9.070;2023-03-17T07:09:06;96677.81;;;9.22;70.92
6514;BME280;3290;47.716;9.070;2023-03-17T07:11:32;96689.09;;;9.22;71.00
6514;BME280;3290;47.716;9.070;2023-03-17T07:13:58;96689.44;;;8.65;74.08
6514;BME280;3290;47.716;9.070;2023-03-17T07:16:23;96689.59;;;8.20;75.80
6514;BME280;3290;47.716;9.070;2023-03-17T07:18:48;96685.59;;;8.11;76.52
6514;BME280;3290;47.716;9.070;2023-03-17T07:21:14;96694.31;;;8.48;76.48
6514;BME280;3290;47.716;9.070;2023-03-17T07:23:40;96692.97;;;8.77;76.64
6514;BME280;3290;47.716;9.070;2023-03-17T07:26:06;96699.00;;;9.14;74.69
6514;BME280;3290;47.716;9.070;2023-03-17T07:28:31;96701.53;;;8.53;76.94
6514;BME280;3290;47.716;9.070;2023-03-17T07:30:56;96688.78;;;9.06;76.55
6514;BME280;3290;47.716;9.070;2023-03-17T07:33:22;96686.88;;;9.26;76.10
6514;BME280;3290;47.716;9.070;2023-03-17T07:35:49;96671.94;;;9.02;74.56
6514;BME280;3290;47.716;9.070;2023-03-17T07:38:15;96670.00;;;9.46;74.23
6514;BME280;3290;47.716;9.070;2023-03-17T07:40:42;96677.59;;;9.54;73.26
6514;BME280;3290;47.716;9.070;2023-03-17T07:43:08;96677.47;;;9.67;72.61
6514;BME280;3290;47.716;9.070;2023-03-17T07:45:33;96678.53;;;9.84;73.42
6514;BME280;3290;47.716;9.070;2023-03-17T07:48:01;96652.19;;;9.37;74.45
6514;BME280;3290;47.716;9.070;2023-03-17T07:50:27;96655.31;;;9.21;75.54
6514;BME280;3290;47.716;9.070;2023-03-17T07:52:52;96659.00;;;9.62;72.69
6514;BME280;3290;47.716;9.070;2023-03-17T07:55:17;96647.00;;;9.79;72.94
6514;BME280;3290;47.716;9.070;2023-03-17T07:57:43;96657.34;;;10.09;70.47
6514;BME280;3290;47.716;9.070;2023-03-17T08:00:09;96673.69;;;10.29;71.37
6514;BME280;3290;47.716;9.070;2023-03-17T08:02:36;96668.66;;;10.10;70.05
6514;BME280;3290;47.716;9.070;2023-03-17T08:05:02;96672.06;;;10.46;68.96
6514;BME280;3290;47.716;9.070;2023-03-17T08:07:28;96673.47;;;10.77;67.52
6514;BME280;3290;47.716;9.070;2023-03-17T08:09:55;96671.59;;;10.67;66.53
6514;BME280;3290;47.716;9.070;2023-03-17T08:12:21;96667.03;;;10.91;65.91
6514;BME280;3290;47.716;9.070;2023-03-17T08:14:48;96668.69;;;10.39;67.91
6514;BME280;3290;47.716;9.070;2023-03-17T08:17:13;96664.06;;;10.05;68.42
6514;BME280;3290;47.716;9.070;2023-03-17T08:19:38;96656.72;;;9.90;70.11
6514;BME280;3290;47.716;9.070;2023-03-17T08:22:04;96658.72;;;10.65;66.96
6514;BME280;3290;47.716;9.070;2023-03-17T08:24:29;96660.81;;;10.57;67.43
6514;BME280;3290;47.716;9.070;2023-03-17T08:26:54;96655.59;;;10.75;65.73
6514;BME280;3290;47.716;9.070;2023-03-17T08:29:20;96660.78;;;11.33;64.70
6514;BME280;3290;47.716;9.070;2023-03-17T08:31:45;96655.66;;;10.97;64.14
6514;BME280;3290;47.716;9.070;2023-03-17T08:34:11;96652.50;;;10.77;63.46
6514;BME280;3290;47.716;9.070;2023-03-17T08:36:36;96649.59;;;10.85;63.68
6514;BME280;3290;47.716;9.070;2023-03-17T08:39:03;96650.59;;;10.84;62.95
6514;BME280;3290;47.716;9.070;2023-03-17T08:44:01;96643.28;;;11.56;60.48
6514;BME280;3290;47.716;9.070;2023-03-17T08:46:30;96633.94;;;11.94;59.11
6514;BME280;3290;47.716;9.070;2023-03-17T08:48:56;96639.06;;;11.89;59.24
6514;BME280;3290;47.716;9.070;2023-03-17T08:51:24;96638.25;;;11.77;57.94
6514;BME280;3290;47.716;9.070;2023-03-17T08:53:50;96642.44;;;10.92;59.88
6514;BME280;3290;47.716;9.070;2023-03-17T08:56:15;96646.00;;;11.09;61.65
6514;BME280;3290;47.716;9.070;2023-03-17T08:58:41;96641.22;;;10.77;62.73
6514;BME280;3290;47.716;9.070;2023-03-17T09:01:07;96633.75;;;11.32;59.74
6514;BME280;3290;47.716;9.070;2023-03-17T09:03:35;96637.19;;;11.44;60.03
6514;BME280;3290;47.716;9.070;2023-03-17T09:06:01;96638.50;;;11.64;58.75
6514;BME280;3290;47.716;9.070;2023-03-17T09:08:30;96632.28;;;11.36;59.16
6514;BME280;3290;47.716;9.070;2023-03-17T09:10:56;96628.84;;;10.95;61.44
6514;BME280;3290;47.716;9.070;2023-03-17T09:13:22;96625.66;;;10.93;60.74
6514;BME280;3290;47.716;9.070;2023-03-17T09:15:47;96641.47;;;11.16;61.38
6514;BME280;3290;47.716;9.070;2023-03-17T09:18:12;96632.69;;;11.62;59.61
6514;BME280;3290;47.716;9.070;2023-03-17T09:20:39;96629.28;;;11.62;60.84
6514;BME280;3290;47.716;9.070;2023-03-17T09:23:05;96639.50;;;11.63;57.90
6514;BME280;3290;47.716;9.070;2023-03-17T09:25:34;96628.53;;;11.44;58.65
6514;BME280;3290;47.716;9.070;2023-03-17T09:27:59;96628.78;;;12.22;58.15
6514;BME280;3290;47.716;9.070;2023-03-17T09:30:25;96619.91;;;12.78;56.00
6514;BME280;3290;47.716;9.070;2023-03-17T09:32:51;96630.97;;;12.52;57.44
6514;BME280;3290;47.716;9.070;2023-03-17T09:35:17;96622.84;;;12.93;55.25
6514;BME280;3290;47.716;9.070;2023-03-17T09:37:42;96620.66;;;13.18;55.63
6514;BME280;3290;47.716;9.070;2023-03-17T09:40:12;96614.94;;;14.23;52.60
6514;BME280;3290;47.716;9.070;2023-03-17T09:43:19;96619.44;;;14.44;51.91
6514;BME280;3290;47.716;9.070;2023-03-17T09:45:38;96617.81;;;13.68;53.93
6514;BME280;3290;47.716;9.070;2023-03-17T09:48:28;96617.66;;;13.58;54.07
6514;BME280;3290;47.716;9.070;2023-03-17T09:51:08;96613.63;;;14.04;52.58
6514;BME280;3290;47.716;9.070;2023-03-17T09:54:01;96609.03;;;14.80;51.25
6514;BME280;3290;47.716;9.070;2023-03-17T09:56:35;96616.97;;;14.16;52.88
6514;BME280;3290;47.716;9.070;2023-03-17T09:59:10;96623.06;;;13.84;53.99
6514;BME280;3290;47.716;9.070;2023-03-17T10:01:42;96620.63;;;14.15;50.75
6514;BME280;3290;47.716;9.070;2023-03-17T10:04:09;96619.31;;;14.34;50.57
6514;BME280;3290;47.716;9.070;2023-03-17T10:06:35;96612.78;;;14.63;50.45
6514;BME280;3290;47.716;9.070;2023-03-17T10:09:09;96612.50;;;14.85;50.76
6514;BME280;3290;47.716;9.070;2023-03-17T10:14:10;96601.56;;;15.51;49.42
6514;BME280;3290;47.716;9.070;2023-03-17T10:17:15;96597.50;;;15.12;48.59
6514;BME280;3290;47.716;9.070;2023-03-17T10:19:53;96588.91;;;15.53;47.30
6514;BME280;3290;47.716;9.070;2023-03-17T10:22:44;96592.84;;;14.98;48.79
6514;BME280;3290;47.716;9.070;2023-03-17T10:25:22;96585.47;;;15.21;47.76
6514;BME280;3290;47.716;9.070;2023-03-17T10:28:00;96588.09;;;15.88;46.43
6514;BME280;3290;47.716;9.070;2023-03-17T10:30:26;96582.97;;;16.18;44.89
6514;BME280;3290;47.716;9.070;2023-03-17T10:32:55;96572.78;;;16.31;44.00
6514;BME280;3290;47.716;9.070;2023-03-17T10:35:23;96579.53;;;16.68;41.70
6514;BME280;3290;47.716;9.070;2023-03-17T10:37:48;96572.84;;;16.00;44.66
6514;BME280;3290;47.716;9.070;2023-03-17T10:40:27;96559.16;;;16.13;44.92
6514;BME280;3290;47.716;9.070;2023-03-17T10:43:02;96558.41;;;17.08;44.20
6514;BME280;3290;47.716;9.070;2023-03-17T10:45:32;96562.16;;;17.22;41.67
6514;BME280;3290;47.716;9.070;2023-03-17T10:48:00;96554.19;;;17.02;39.20
6514;BME280;3290;47.716;9.070;2023-03-17T10:50:29;96551.22;;;16.74;38.73
6514;BME280;3290;47.716;9.070;2023-03-17T10:53:03;96551.91;;;16.44;39.27
6514;BME280;3290;47.716;9.070;2023-03-17T10:55:32;96563.13;;;16.81;40.58
6514;BME280;3290;47.716;9.070;2023-03-17T10:58:04;96559.47;;;16.97;40.02
6514;BME280;3290;47.716;9.070;2023-03-17T11:00:33;96556.09;;;17.31;38.56
6514;BME280;3290;47.716;9.070;2023-03-17T11:03:08;96553.66;;;17.00;40.39
6514;BME280;3290;47.716;9.070;2023-03-17T11:05:35;96550.25;;;16.24;40.03
6514;BME280;3290;47.716;9.070;2023-03-17T11:08:17;96558.63;;;16.67;40.08
6514;BME280;3290;47.716;9.070;2023-03-17T11:10:43;96556.19;;;16.50;40.61
6514;BME280;3290;47.716;9.070;2023-03-17T11:13:15;96544.69;;;17.35;38.58
6514;BME280;3290;47.716;9.070;2023-03-17T11:15:46;96539.84;;;16.83;39.90
6514;BME280;3290;47.716;9.070;2023-03-17T11:18:27;96544.91;;;17.09;38.99
6514;BME280;3290;47.716;9.070;2023-03-17T11:20:58;96533.59;;;17.48;37.41
6514;BME280;3290;47.716;9.070;2023-03-17T11:37:32;96508.44;;;17.26;39.37
6514;BME280;3290;47.716;9.070;2023-03-17T11:40:21;96494.34;;;17.60;39.60
6514;BME280;3290;47.716;9.070;2023-03-17T11:45:41;96506.50;;;17.76;39.08
6514;BME280;3290;47.716;9.070;2023-03-17T11:51:00;96500.47;;;17.41;41.46
6514;BME280;3290;47.716;9.070;2023-03-17T11:56:51;96496.38;;;17.93;39.35
6514;BME280;3290;47.716;9.070;2023-03-17T12:01:53;96495.69;;;17.08;40.51
6514;BME280;3290;47.716;9.070;2023-03-17T12:04:36;96489.28;;;17.63;40.63
6514;BME280;3290;47.716;9.070;2023-03-17T12:07:13;96479.72;;;17.87;38.81
6514;BME280;3290;47.716;9.070;2023-03-17T12:09:53;96468.06;;;17.83;38.46
6514;BME280;3290;47.716;9.070;2023-03-17T12:12:28;96468.13;;;18.36;38.31
6514;BME280;3290;47.716;9.070;2023-03-17T12:14:55;96459.91;;;18.38;38.78
6514;BME280;3290;47.716;9.070;2023-03-17T12:17:38;96463.97;;;18.63;41.15
6514;BME280;3290;47.716;9.070;2023-03-17T12:20:12;96466.13;;;18.13;40.14
6514;BME280;3290;47.716;9.070;2023-03-17T12:25:51;96464.63;;;17.78;40.47
6514;BME280;3290;47.716;9.070;2023-03-17T12:28:26;96460.16;;;18.41;41.07
6514;BME280;3290;47.716;9.070;2023-03-17T12:31:00;96465.63;;;18.92;40.33
6514;BME280;3290;47.716;9.070;2023-03-17T12:36:14;96462.19;;;19.58;37.26
6514;BME280;3290;47.716;9.070;2023-03-17T12:38:52;96453.81;;;19.69;36.56
6514;BME280;3290;47.716;9.070;2023-03-17T12:47:08;96460.91;;;18.84;37.93
6514;BME280;3290;47.716;9.070;2023-03-17T12:55:16;96442.34;;;19.46;37.74
6514;BME280;3290;47.716;9.070;2023-03-17T12:57:46;96442.88;;;19.20;36.24
6514;BME280;3290;47.716;9.070;2023-03-17T13:00:30;96436.69;;;18.58;37.25
6514;BME280;3290;47.716;9.070;2023-03-17T13:05:34;96439.22;;;18.78;36.02
6514;BME280;3290;47.716;9.070;2023-03-17T13:08:03;96428.88;;;18.76;37.57
6514;BME280;3290;47.716;9.070;2023-03-17T13:10:38;96417.09;;;19.20;35.62
6514;BME280;3290;47.716;9.070;2023-03-17T13:13:09;96418.41;;;19.97;33.76
6514;BME280;3290;47.716;9.070;2023-03-17T13:23:40;96421.47;;;20.09;34.38
6514;BME280;3290;47.716;9.070;2023-03-17T13:26:06;96422.84;;;20.43;34.36
6514;BME280;3290;47.716;9.070;2023-03-17T13:33:34;96411.09;;;20.26;34.06
6514;BME280;3290;47.716;9.070;2023-03-17T13:36:19;96407.13;;;20.05;34.91
6514;BME280;3290;47.716;9.070;2023-03-17T13:44:26;96393.91;;;18.97;37.97
6514;BME280;3290;47.716;9.070;2023-03-17T13:47:34;96398.03;;;19.13;38.71
6514;BME280;3290;47.716;9.070;2023-03-17T13:50:29;96401.88;;;18.97;39.54
6514;BME280;3290;47.716;9.070;2023-03-17T13:53:00;96392.34;;;18.91;39.02
6514;BME280;3290;47.716;9.070;2023-03-17T13:55:40;96399.56;;;18.10;38.97
6514;BME280;3290;47.716;9.070;2023-03-17T14:00:36;96399.97;;;18.70;38.26
6514;BME280;3290;47.716;9.070;2023-03-17T14:03:23;96402.13;;;19.29;38.41
6514;BME280;3290;47.716;9.070;2023-03-17T14:05:53;96408.97;;;18.74;37.95
6514;BME280;3290;47.716;9.070;2023-03-17T14:08:28;96410.75;;;18.83;37.74
6514;BME280;3290;47.716;9.070;2023-03-17T14:11:01;96411.78;;;19.20;37.15
6514;BME280;3290;47.716;9.070;2023-03-17T14:13:29;96409.72;;;18.79;38.35
6514;BME280;3290;47.716;9.070;2023-03-17T14:16:08;96407.50;;;18.58;39.09
6514;BME280;3290;47.716;9.070;2023-03-17T14:18:43;96408.25;;;18.25;39.53
6514;BME280;3290;47.716;9.070;2023-03-17T14:21:24;96400.34;;;18.05;40.41
6514;BME280;3290;47.716;9.070;2023-03-17T14:23:58;96411.47;;;18.07;40.06
6514;BME280;3290;47.716;9.070;2023-03-17T14:26:29;96404.13;;;18.43;38.85
6514;BME280;3290;47.716;9.070;2023-03-17T14:28:59;96400.34;;;18.10;39.69
6514;BME280;3290;47.716;9.070;2023-03-17T14:31:28;96399.81;;;18.89;38.44
6514;BME280;3290;47.716;9.070;2023-03-17T14:33:56;96396.06;;;18.95;39.64
6514;BME280;3290;47.716;9.070;2023-03-17T14:36:27;96399.22;;;18.26;40.23
6514;BME280;3290;47.716;9.070;2023-03-17T14:38:56;96397.75;;;18.82;39.62
6514;BME280;3290;47.716;9.070;2023-03-17T14:41:27;96387.63;;;18.88;39.33
6514;BME280;3290;47.716;9.070;2023-03-17T14:43:56;96398.09;;;19.08;39.05
6514;BME280;3290;47.716;9.070;2023-03-17T14:46:29;96392.69;;;19.18;38.20
6514;BME280;3290;47.716;9.070;2023-03-17T14:49:01;96393.06;;;18.36;40.30